createdAt,value
2018-12-23T00:00:02.011Z,6.66
2018-12-23T00:02:30.270Z,6.71
2018-12-23T00:04:58.592Z,6.71
2018-12-23T00:07:26.866Z,6.66
2018-12-23T00:09:55.148Z,6.64
2018-12-23T00:12:23.431Z,6.66
2018-12-23T00:14:51.700Z,6.70
2018-12-23T00:17:19.955Z,6.66
2018-12-23T00:19:48.245Z,6.68
2018-12-23T00:22:16.524Z,6.64
2018-12-23T00:24:44.808Z,6.64
2018-12-23T00:27:13.075Z,6.65
2018-12-23T00:29:41.355Z,6.67
2018-12-23T00:32:09.639Z,6.72
2018-12-23T00:34:37.884Z,6.75
2018-12-23T00:37:06.184Z,6.71
2018-12-23T00:39:34.462Z,6.64
2018-12-23T00:42:02.743Z,6.65
2018-12-23T00:44:31.020Z,6.68
2018-12-23T00:46:59.395Z,6.70
2018-12-23T00:49:28.868Z,6.78
2018-12-23T00:51:57.120Z,6.59
2018-12-23T00:54:25.455Z,6.54
2018-12-23T00:56:53.732Z,6.23
2018-12-23T00:59:21.993Z,6.29
2018-12-23T01:01:50.287Z,6.43
2018-12-23T01:04:18.568Z,6.57
2018-12-23T01:06:46.906Z,6.61
2018-12-23T01:09:15.175Z,6.65
2018-12-23T01:11:43.489Z,6.66
2018-12-23T01:14:11.731Z,6.66
2018-12-23T01:16:40.031Z,6.54
2018-12-23T01:19:08.320Z,6.60
2018-12-23T01:21:36.559Z,6.57
2018-12-23T01:24:04.880Z,6.55
2018-12-23T01:26:33.150Z,6.56
2018-12-23T01:29:01.389Z,6.50
2018-12-23T01:31:29.696Z,6.52
2018-12-23T01:33:57.978Z,6.52
2018-12-23T01:36:26.219Z,6.35
2018-12-23T01:38:54.465Z,6.45
2018-12-23T01:41:22.816Z,6.33
2018-12-23T01:43:51.056Z,6.38
2018-12-23T01:46:19.360Z,6.32
2018-12-23T01:48:47.637Z,6.31
2018-12-23T01:51:15.887Z,6.29
2018-12-23T01:53:44.200Z,6.17
2018-12-23T01:56:12.496Z,6.14
2018-12-23T01:58:40.734Z,6.15
2018-12-23T02:01:09.244Z,6.12
2018-12-23T02:03:37.499Z,6.10
2018-12-23T02:06:05.869Z,6.05
2018-12-23T02:08:34.172Z,6.01
2018-12-23T02:11:02.431Z,6.00
2018-12-23T02:13:30.671Z,6.02
2018-12-23T02:15:58.988Z,6.09
2018-12-23T02:18:27.264Z,6.06
2018-12-23T02:20:55.536Z,6.03
2018-12-23T02:23:23.787Z,5.95
2018-12-23T02:25:52.028Z,6.04
2018-12-23T02:28:20.371Z,6.05
2018-12-23T02:30:48.948Z,5.98
2018-12-23T02:33:17.243Z,5.95
2018-12-23T02:35:45.632Z,5.96
2018-12-23T02:38:13.996Z,5.97
2018-12-23T02:40:42.367Z,5.84
2018-12-23T02:43:10.654Z,5.79
2018-12-23T02:45:38.904Z,5.78
2018-12-23T02:48:07.156Z,5.81
2018-12-23T02:50:35.404Z,5.74
2018-12-23T02:53:03.667Z,5.74
2018-12-23T02:55:32.129Z,5.68
2018-12-23T02:58:00.404Z,5.65
2018-12-23T03:00:28.681Z,5.61
2018-12-23T03:02:56.924Z,5.63
2018-12-23T03:05:25.238Z,5.69
2018-12-23T03:07:53.508Z,5.67
2018-12-23T03:10:21.788Z,5.76
2018-12-23T03:12:50.063Z,5.85
2018-12-23T03:15:18.454Z,5.86
2018-12-23T03:17:46.692Z,5.86
2018-12-23T03:20:14.933Z,5.84
2018-12-23T03:22:43.191Z,5.97
2018-12-23T03:25:11.436Z,5.90
2018-12-23T03:27:39.724Z,5.88
2018-12-23T03:30:08.005Z,5.93
2018-12-23T03:32:36.279Z,5.91
2018-12-23T03:35:05.559Z,5.87
2018-12-23T03:37:33.836Z,5.90
2018-12-23T03:40:02.135Z,5.89
2018-12-23T03:42:30.410Z,5.92
2018-12-23T03:44:58.683Z,6.03
2018-12-23T03:47:26.923Z,6.05
2018-12-23T03:49:55.185Z,6.04
2018-12-23T03:52:23.510Z,6.06
2018-12-23T03:54:51.790Z,6.08
2018-12-23T03:57:20.080Z,6.05
2018-12-23T03:59:48.374Z,6.19
2018-12-23T04:02:16.719Z,6.15
2018-12-23T04:04:44.997Z,6.19
2018-12-23T04:07:13.241Z,6.18
2018-12-23T04:09:41.500Z,6.07
2018-12-23T04:12:09.739Z,6.04
2018-12-23T04:14:37.985Z,6.18
2018-12-23T04:17:06.235Z,6.12
2018-12-23T04:19:34.760Z,6.14
2018-12-23T04:22:03.017Z,6.16
2018-12-23T04:24:31.308Z,6.19
2018-12-23T04:26:59.556Z,6.24
2018-12-23T04:29:27.791Z,6.24
2018-12-23T04:31:56.036Z,6.25
2018-12-23T04:34:24.276Z,6.22
2018-12-23T04:36:52.592Z,6.26
2018-12-23T04:39:20.832Z,6.29
2018-12-23T04:41:49.075Z,6.29
2018-12-23T04:44:17.327Z,6.38
2018-12-23T04:46:45.575Z,6.47
2018-12-23T04:49:13.871Z,6.32
2018-12-23T04:51:42.152Z,6.35
2018-12-23T04:54:10.420Z,6.37
2018-12-23T04:56:38.702Z,6.31
2018-12-23T04:59:06.969Z,6.36
2018-12-23T05:01:35.258Z,6.39
2018-12-23T05:04:03.515Z,6.42
2018-12-23T05:06:31.809Z,6.42
2018-12-23T05:09:00.043Z,6.34
2018-12-23T05:11:28.360Z,6.29
2018-12-23T05:13:56.639Z,6.18
2018-12-23T05:16:24.919Z,6.20
2018-12-23T05:18:53.180Z,6.11
2018-12-23T05:21:21.472Z,6.09
2018-12-23T05:23:49.721Z,6.14
2018-12-23T05:26:17.988Z,6.17
2018-12-23T05:28:46.239Z,6.22
2018-12-23T05:31:14.573Z,6.22
2018-12-23T05:33:42.956Z,6.23
2018-12-23T05:36:11.227Z,6.32
2018-12-23T05:38:39.520Z,6.37
2018-12-23T05:41:07.779Z,6.41
2018-12-23T05:43:36.023Z,6.34
2018-12-23T05:46:04.341Z,6.28
2018-12-23T05:48:32.720Z,6.17
2018-12-23T05:51:01.091Z,6.14
2018-12-23T05:53:29.368Z,6.08
2018-12-23T05:55:56.940Z,6.17
2018-12-23T05:58:25.175Z,6.11
2018-12-23T06:00:53.480Z,5.89
2018-12-23T06:03:21.756Z,5.96
2018-12-23T06:05:50.011Z,5.92
2018-12-23T06:08:18.256Z,5.98
2018-12-23T06:10:46.499Z,5.97
2018-12-23T06:13:14.762Z,5.98
2018-12-23T06:15:43.005Z,6.02
2018-12-23T06:18:11.255Z,6.08
2018-12-23T06:20:39.520Z,6.08
2018-12-23T06:23:07.753Z,6.05
2018-12-23T06:25:35.992Z,6.07
2018-12-23T06:28:04.261Z,6.10
2018-12-23T06:33:07.080Z,6.01
2018-12-23T06:35:35.395Z,6.09
2018-12-23T06:38:03.673Z,6.13
2018-12-23T06:40:31.921Z,6.22
2018-12-23T06:43:00.155Z,6.12
2018-12-23T06:45:28.415Z,6.08
2018-12-23T06:47:56.671Z,6.11
2018-12-23T06:50:24.916Z,6.15
2018-12-23T06:52:53.230Z,6.15
2018-12-23T06:55:21.473Z,5.89
2018-12-23T06:57:49.720Z,5.87
2018-12-23T07:00:18.055Z,5.90
2018-12-23T07:02:46.300Z,5.82
2018-12-23T07:05:14.543Z,5.92
2018-12-23T07:07:42.799Z,5.93
2018-12-23T07:10:11.052Z,5.94
2018-12-23T07:12:39.300Z,5.96
2018-12-23T07:15:07.716Z,6.01
2018-12-23T07:17:35.963Z,5.97
2018-12-23T07:20:05.502Z,5.90
2018-12-23T07:22:33.747Z,5.83
2018-12-23T07:25:02.157Z,5.87
2018-12-23T07:27:30.400Z,5.96
2018-12-23T07:29:58.711Z,6.03
2018-12-23T07:32:26.960Z,6.03
2018-12-23T07:34:55.349Z,6.05
2018-12-23T07:37:27.510Z,6.06
2018-12-23T07:39:53.863Z,6.04
2018-12-23T07:42:22.110Z,6.10
2018-12-23T07:44:50.419Z,6.20
2018-12-23T07:47:18.691Z,6.24
2018-12-23T07:49:46.939Z,6.06
2018-12-23T07:52:15.188Z,5.97
2018-12-23T07:54:43.519Z,5.91
2018-12-23T07:57:11.785Z,5.89
2018-12-23T07:59:40.441Z,5.87
2018-12-23T08:02:08.705Z,5.85
2018-12-23T08:04:36.940Z,5.88
2018-12-23T08:07:05.175Z,6.02
2018-12-23T08:09:33.439Z,5.98
2018-12-23T08:12:01.671Z,6.01
2018-12-23T08:14:29.933Z,6.05
2018-12-23T08:16:58.181Z,6.08
2018-12-23T08:19:26.431Z,6.08
2018-12-23T08:21:54.709Z,6.13
2018-12-23T08:24:22.944Z,6.11
2018-12-23T08:26:51.223Z,6.21
2018-12-23T08:29:19.473Z,6.25
2018-12-23T08:31:48.771Z,6.11
2018-12-23T08:34:17.118Z,6.19
2018-12-23T08:36:45.451Z,6.12
2018-12-23T08:39:13.707Z,6.08
2018-12-23T08:41:41.956Z,6.15
2018-12-23T08:44:10.203Z,6.28
2018-12-23T08:46:39.259Z,6.27
2018-12-23T08:49:07.815Z,6.41
2018-12-23T08:51:36.067Z,6.42
2018-12-23T08:54:04.332Z,6.40
2018-12-23T08:56:32.576Z,6.44
2018-12-23T08:59:00.840Z,6.39
2018-12-23T09:01:29.170Z,6.43
2018-12-23T09:03:57.778Z,6.50
2018-12-23T09:06:26.024Z,6.47
2018-12-23T09:08:54.316Z,6.51
2018-12-23T09:11:22.578Z,6.56
2018-12-23T09:13:50.807Z,6.55
2018-12-23T09:16:19.073Z,6.46
2018-12-23T09:18:47.316Z,6.54
2018-12-23T09:21:15.721Z,6.56
2018-12-23T09:23:43.977Z,6.61
2018-12-23T09:26:12.649Z,6.67
2018-12-23T09:28:40.879Z,6.78
2018-12-23T09:31:09.179Z,6.84
2018-12-23T09:33:37.471Z,6.93
2018-12-23T09:36:05.833Z,6.89
2018-12-23T09:38:34.085Z,6.94
2018-12-23T09:41:02.400Z,6.94
2018-12-23T09:43:30.704Z,7.01
2018-12-23T09:45:58.959Z,7.06
2018-12-23T09:48:27.213Z,7.15
2018-12-23T09:50:55.475Z,7.14
2018-12-23T09:53:23.727Z,7.17
2018-12-23T09:55:51.979Z,7.19
2018-12-23T09:58:20.224Z,7.07
2018-12-23T10:00:48.475Z,7.14
2018-12-23T10:03:16.737Z,7.19
2018-12-23T10:05:45.679Z,7.30
2018-12-23T10:08:13.931Z,7.37
2018-12-23T10:10:42.184Z,7.42
2018-12-23T10:13:10.428Z,7.47
2018-12-23T10:15:38.812Z,7.44
2018-12-23T10:18:07.085Z,7.48
2018-12-23T10:20:35.335Z,7.54
2018-12-23T10:23:03.578Z,7.55
2018-12-23T10:25:31.840Z,7.55
2018-12-23T10:28:00.076Z,7.65
2018-12-23T10:30:28.331Z,7.56
2018-12-23T10:32:56.586Z,7.49
2018-12-23T10:35:24.844Z,7.59
2018-12-23T10:37:53.083Z,7.61
2018-12-23T10:40:21.345Z,7.60
2018-12-23T10:42:49.579Z,7.63
2018-12-23T10:45:17.837Z,7.47
2018-12-23T10:47:46.071Z,7.48
2018-12-23T10:50:14.413Z,7.50
2018-12-23T10:52:42.687Z,7.45
2018-12-23T10:55:10.945Z,7.40
2018-12-23T10:57:39.179Z,7.47
2018-12-23T11:00:11.412Z,7.63
2018-12-23T11:02:39.656Z,7.65
2018-12-23T11:05:07.891Z,7.64
2018-12-23T11:07:36.144Z,7.56
2018-12-23T11:10:05.825Z,7.56
2018-12-23T11:12:34.056Z,7.53
2018-12-23T11:15:02.320Z,7.46
2018-12-23T11:17:30.563Z,7.53
2018-12-23T11:19:58.914Z,7.46
2018-12-23T11:22:27.147Z,7.50
2018-12-23T11:24:55.386Z,7.57
2018-12-23T11:27:23.639Z,7.52
2018-12-23T11:29:51.884Z,7.53
2018-12-23T11:32:20.122Z,7.50
2018-12-23T11:34:48.376Z,7.38
2018-12-23T11:37:16.731Z,7.42
2018-12-23T11:39:44.985Z,7.57
2018-12-23T11:42:13.224Z,7.60
2018-12-23T11:44:41.471Z,7.62
2018-12-23T11:47:09.725Z,7.59
2018-12-23T11:49:37.976Z,7.62
2018-12-23T11:52:06.203Z,7.64
2018-12-23T11:54:34.479Z,7.64
2018-12-23T11:57:02.815Z,7.65
2018-12-23T11:59:31.039Z,7.73
2018-12-23T12:01:59.292Z,7.77
2018-12-23T12:04:27.538Z,7.80
2018-12-23T12:06:55.768Z,7.69
2018-12-23T12:09:24.023Z,7.59
2018-12-23T12:11:52.288Z,7.65
2018-12-23T12:14:20.550Z,7.72
2018-12-23T12:16:48.824Z,7.83
2018-12-23T12:19:17.059Z,7.91
2018-12-23T12:21:45.314Z,7.92
2018-12-23T12:24:13.571Z,8.00
2018-12-23T12:26:41.828Z,8.01
2018-12-23T12:29:11.037Z,8.04
2018-12-23T12:31:39.367Z,8.09
2018-12-23T12:34:07.607Z,8.12
2018-12-23T12:36:35.965Z,8.02
2018-12-23T12:39:06.578Z,7.99
2018-12-23T12:41:34.828Z,8.00
2018-12-23T12:44:03.090Z,7.92
2018-12-23T12:46:31.333Z,7.89
2018-12-23T12:48:59.649Z,8.04
2018-12-23T12:51:27.917Z,8.04
2018-12-23T12:53:56.163Z,8.02
2018-12-23T12:56:24.431Z,8.05
2018-12-23T12:58:52.677Z,7.95
2018-12-23T13:01:20.928Z,7.88
2018-12-23T13:03:49.169Z,7.89
2018-12-23T13:06:17.411Z,7.83
2018-12-23T13:08:45.686Z,7.86
2018-12-23T13:11:13.923Z,7.95
2018-12-23T13:13:42.184Z,8.00
2018-12-23T13:16:10.434Z,8.07
2018-12-23T13:18:38.710Z,8.12
2018-12-23T13:21:06.987Z,8.15
2018-12-23T13:23:35.230Z,8.17
2018-12-23T13:26:03.568Z,8.15
2018-12-23T13:28:31.813Z,8.11
2018-12-23T13:31:00.065Z,8.14
2018-12-23T13:33:28.353Z,8.19
2018-12-23T13:35:56.662Z,8.19
2018-12-23T13:38:24.923Z,7.96
2018-12-23T13:44:26.777Z,8.17
2018-12-23T13:47:54.383Z,8.09
2018-12-23T13:51:21.989Z,8.01
2018-12-23T13:54:49.596Z,7.86
2018-12-23T13:57:59.409Z,7.80
2018-12-23T14:01:09.286Z,7.74
2018-12-23T14:03:55.453Z,7.68
2018-12-23T14:07:23.069Z,7.71
2018-12-23T14:10:50.662Z,7.64
2018-12-23T14:13:39.592Z,7.63
2018-12-23T14:16:28.475Z,7.45
2018-12-23T14:19:17.383Z,7.44
2018-12-23T14:22:06.282Z,5.92
2018-12-23T14:24:55.213Z,7.49
2018-12-23T14:27:35.033Z,7.54
2018-12-23T14:30:23.959Z,7.54
2018-12-23T14:33:12.957Z,7.57
2018-12-23T14:36:20.901Z,6.26
2018-12-23T14:39:09.881Z,7.59
2018-12-23T14:41:58.798Z,7.59
2018-12-23T14:44:47.711Z,6.08
2018-12-23T14:47:36.604Z,7.49
2018-12-23T14:50:25.517Z,5.86
2018-12-23T14:53:33.439Z,7.42
2018-12-23T14:56:22.353Z,7.43
2018-12-23T14:59:11.244Z,6.46
2018-12-23T15:02:19.182Z,7.34
2018-12-23T15:05:08.106Z,7.36
2018-12-23T15:07:56.995Z,7.28
2018-12-23T15:10:45.933Z,7.16
2018-12-23T15:13:34.819Z,7.21
2018-12-23T15:16:23.736Z,7.25
2018-12-23T15:19:12.643Z,7.24
2018-12-23T15:22:01.557Z,7.34
2018-12-23T15:24:43.214Z,6.59
2018-12-23T15:27:51.145Z,7.38
2018-12-23T15:30:40.055Z,7.41
2018-12-23T15:33:28.947Z,7.45
2018-12-23T15:39:33.462Z,7.28
2018-12-23T15:42:22.360Z,5.93
2018-12-23T15:45:11.293Z,5.80
2018-12-23T15:48:00.204Z,7.29
2018-12-23T15:50:49.109Z,7.28
2018-12-23T15:53:38.059Z,7.24
2018-12-23T15:56:26.939Z,5.58
2018-12-23T15:59:15.832Z,7.22
2018-12-23T16:02:04.808Z,7.18
2018-12-23T16:04:54.733Z,7.19
2018-12-23T16:07:44.347Z,7.24
2018-12-23T16:10:33.263Z,7.30
2018-12-23T16:13:22.173Z,7.33
2018-12-23T16:16:11.070Z,7.33
2018-12-23T16:22:14.834Z,7.37
2018-12-23T16:24:56.359Z,7.39
2018-12-23T16:27:45.274Z,7.37
2018-12-23T16:33:41.919Z,7.23
2018-12-23T16:36:30.831Z,7.23
2018-12-23T16:39:19.735Z,5.86
2018-12-23T16:45:16.415Z,7.02
2018-12-23T16:48:05.318Z,6.89
2018-12-23T16:51:13.241Z,6.90
2018-12-23T16:54:02.131Z,6.94
2018-12-23T16:56:51.054Z,6.94
2018-12-23T16:59:40.371Z,5.83
2018-12-23T17:02:29.268Z,6.99
2018-12-23T17:05:18.189Z,6.64
2018-12-23T17:08:07.089Z,6.89
2018-12-23T17:10:56.035Z,6.90
2018-12-23T17:13:44.911Z,6.92
2018-12-23T17:16:33.824Z,6.83
2018-12-23T17:19:22.711Z,6.94
2018-12-23T17:22:11.644Z,6.91
2018-12-23T17:25:00.560Z,6.95
2018-12-23T17:27:49.464Z,6.90
2018-12-23T17:30:38.359Z,6.94
2018-12-23T17:33:27.307Z,5.30
2018-12-23T17:36:16.177Z,7.03
2018-12-23T17:39:25.996Z,6.90
2018-12-23T17:42:14.936Z,6.85
2018-12-23T17:45:03.819Z,6.88
2018-12-23T17:47:52.727Z,6.78
2018-12-23T17:50:41.636Z,6.52
2018-12-23T17:53:30.547Z,6.54
2018-12-23T17:59:27.195Z,6.71
2018-12-23T18:02:35.108Z,6.78
2018-12-23T18:05:24.021Z,6.84
2018-12-23T18:11:20.669Z,5.22
2018-12-23T18:14:09.608Z,6.44
2018-12-23T18:19:46.641Z,6.57
2018-12-23T18:22:35.542Z,6.56
2018-12-23T18:25:24.470Z,6.67
2018-12-23T18:28:13.372Z,6.01
2018-12-23T18:31:02.293Z,6.57
2018-12-23T18:33:51.210Z,6.27
2018-12-23T18:36:40.162Z,6.22
2018-12-23T18:39:29.202Z,6.40
2018-12-23T18:42:18.092Z,6.48
2018-12-23T18:48:00.992Z,6.59
2018-12-23T18:50:42.640Z,6.69
2018-12-23T18:53:31.837Z,5.45
2018-12-23T18:56:40.696Z,6.67
2018-12-23T19:02:58.278Z,6.63
2018-12-23T19:05:47.188Z,6.67
2018-12-23T19:08:59.649Z,6.72
2018-12-23T19:12:08.581Z,6.75
2018-12-23T19:15:36.247Z,6.85
2018-12-23T19:18:46.036Z,6.83
2018-12-23T19:22:13.649Z,6.75
2018-12-23T19:25:23.470Z,6.66
2018-12-23T19:28:51.073Z,6.63
2018-12-23T19:32:18.662Z,6.26
2018-12-23T19:35:46.296Z,6.32
2018-12-23T19:39:13.964Z,6.26
2018-12-23T19:42:23.851Z,6.32
2018-12-23T19:45:51.531Z,6.38
2018-12-23T19:49:19.215Z,6.22
2018-12-23T19:52:47.089Z,6.08
2018-12-23T19:56:15.126Z,6.20
2018-12-23T19:59:43.155Z,5.86
2018-12-23T20:03:10.926Z,6.10
2018-12-23T20:10:07.601Z,5.44
2018-12-23T20:13:35.608Z,6.35
2018-12-23T20:17:03.625Z,6.51
2018-12-23T20:20:31.684Z,6.36
2018-12-23T20:23:59.808Z,6.30
2018-12-23T20:27:27.727Z,6.26
2018-12-23T20:50:32.520Z,6.22
2018-12-23T20:54:02.087Z,6.08
2018-12-23T20:57:31.588Z,5.99
2018-12-23T21:00:59.485Z,5.99
2018-12-23T21:04:27.744Z,6.03
2018-12-23T21:07:55.764Z,5.26
2018-12-23T21:11:06.084Z,6.04
2018-12-23T21:14:15.190Z,5.62
2018-12-23T21:17:43.323Z,6.00
2018-12-23T21:21:12.547Z,5.98
2018-12-23T21:28:00.535Z,5.76
2018-12-23T21:34:43.679Z,5.89
2018-12-23T21:38:12.341Z,5.86
2018-12-23T21:41:40.281Z,5.79
2018-12-23T21:44:50.323Z,5.54
2018-12-23T21:48:18.243Z,5.46
2018-12-23T21:51:28.281Z,5.40
2018-12-23T21:54:56.224Z,5.31
2018-12-23T21:58:23.893Z,3.85
2018-12-23T22:01:51.648Z,5.31
2018-12-23T22:05:01.575Z,5.12
2018-12-23T22:08:29.171Z,5.28
2018-12-23T22:11:56.767Z,5.29
2018-12-23T22:14:45.711Z,5.25
2018-12-23T22:17:34.610Z,5.20
2018-12-23T22:20:23.530Z,5.24
2018-12-23T22:23:12.499Z,5.20
2018-12-23T22:26:01.418Z,4.42
2018-12-23T22:28:50.314Z,3.75
2018-12-23T22:31:39.232Z,5.20
2018-12-23T22:34:28.166Z,4.31
2018-12-23T22:37:17.102Z,5.17
2018-12-23T22:40:06.791Z,5.13
2018-12-23T22:42:48.436Z,4.86
2018-12-23T22:45:37.354Z,5.09
2018-12-23T22:48:45.273Z,5.12
2018-12-23T22:51:34.178Z,5.17
2018-12-23T22:54:23.084Z,5.18
2018-12-23T22:57:12.000Z,5.19
2018-12-23T23:00:00.892Z,5.18
2018-12-23T23:02:49.808Z,5.23
2018-12-23T23:05:38.708Z,5.16
2018-12-23T23:08:27.618Z,5.11
2018-12-23T23:11:09.625Z,3.34
2018-12-23T23:13:58.559Z,5.06
2018-12-23T23:16:47.490Z,5.00
2018-12-23T23:19:36.404Z,5.01
2018-12-23T23:25:20.074Z,4.94
2018-12-23T23:28:09.000Z,4.93
2018-12-23T23:31:09.638Z,5.00
2018-12-23T23:33:48.542Z,5.01
2018-12-23T23:36:37.432Z,5.06
2018-12-23T23:39:26.345Z,5.03
2018-12-23T23:42:15.323Z,4.94
2018-12-23T23:48:32.650Z,4.93
2018-12-23T23:51:21.548Z,4.91
2018-12-23T23:54:29.480Z,4.92
2018-12-23T23:57:18.375Z,4.89
